Latest Weather Observations for Lochington

IDQ60801

Issued at 4:32 pm EST Sunday 15 September 2019 (issued every 10 minutes, with the page automatically refreshed every 10 minutes)

About weather observations | Map of weather stations | Latest weather observations for QLD | Other Formats
Station Details ID: 035139 Name: LOCHINGTON Lat: -23.94 Lon: 147.53 Height: 267.19 m
Data from the previous 72 hours. | See also: Recent months at Lochington
Date/Time
EST
Temp
°C
App
Temp
°C
Dew
Point
°C
Rel
Hum
%
Delta-T
°C
Wind Press
QNH
hPa
Press
MSL
hPa
Rain since
9am
mm
Dir  Spd
km/h
Gust
km/h
Spd
kts
Gust
kts
15/04:30pm 29.9 24.8 -9.6 7 16.1 NNE 11 20 6 11 1019.3 1018.4 0.0
15/04:00pm 30.4 24.6 -9.2 7 16.3 ENE 15 24 8 13 1019.0 1018.1 0.0
15/03:30pm 30.4 24.6 -9.2 7 16.4 NE 15 24 8 13 1019.0 1018.1 0.0
15/03:00pm 30.8 25.7 -8.9 7 16.5 ENE 11 24 6 13 1018.9 1018.0 0.0
15/02:30pm 30.4 24.9 -9.2 7 16.4 ENE 13 24 7 13 1019.2 1018.3 0.0
15/02:00pm 30.0 25.7 -9.5 7 16.2 NE 7 19 4 10 1019.5 1018.6 0.0
15/01:30pm 29.6 24.9 -9.8 7 16.0 E 9 20 5 11 1020.2 1019.2 0.0
15/01:00pm 29.8 24.3 -9.7 7 16.1 ENE 13 24 7 13 1020.9 1020.0 0.0
15/12:30pm 29.7 24.6 -9.7 7 16.1 ENE 11 22 6 12 1021.4 1020.5 0.0
15/12:00pm 28.9 24.1 -10.3 7 15.6 ENE 9 24 5 13 1022.0 1021.1 0.0
15/11:30am 29.3 23.8 -10.0 7 15.9 NE 13 28 7 15 1022.3 1021.4 0.0
15/11:00am 27.9 21.7 -9.4 8 15.0 ENE 17 24 9 13 1022.9 1022.0 0.0
15/10:30am 27.5 22.4 -9.7 8 14.8 ENE 11 20 6 11 1023.3 1022.4 0.0
15/10:00am 26.1 20.9 -10.7 8 14.2 E 11 17 6 9 1023.6 1022.7 0.0
15/09:30am 24.3 19.5 -10.6 9 13.3 ENE 9 13 5 7 1023.7 1022.9 0.0
15/09:00am 23.3 20.3 -8.8 11 12.4 CALM 0 4 0 2 1024.1 1023.2 0.0
15/08:30am 19.9 17.4 -4.4 19 10.0 CALM 0 2 0 1 1024.4 1023.5 0.0
15/08:00am 16.6 14.1 -4.0 24 8.2 CALM 0 0 0 0 1023.9 1023.1 0.0
15/07:30am 13.4 10.8 -4.7 28 6.9 CALM 0 0 0 0 1023.8 1023.0 0.0
15/07:00am 9.8 7.3 -4.2 37 5.1 CALM 0 0 0 0 1023.6 1022.7 0.0
15/06:30am 8.3 4.5 -5.5 37 4.8 WNW 6 7 3 4 1023.1 1022.2 0.0
15/06:00am 7.6 3.8 -5.1 40 4.4 WNW 6 9 3 5 1022.1 1021.2 0.0
15/05:30am 7.1 4.1 -5.2 41 4.3 W 2 6 1 3 1021.8 1020.9 0.0
15/05:00am 8.3 5.3 -5.2 38 4.8 NW 2 4 1 2 1021.2 1020.3 0.0
15/04:30am 8.4 4.6 -5.4 37 4.9 NW 6 6 3 3 1020.9 1020.0 0.0
15/04:00am 8.8 5.4 -5.4 36 5.0 NW 4 6 2 3 1020.7 1019.8 0.0
15/03:30am 9.0 5.1 -6.8 32 5.4 NW 6 6 3 3 1020.6 1019.7 0.0
15/03:00am 11.3 7.4 -6.5 28 6.3 NW 6 7 3 4 1020.4 1019.4 0.0
15/02:30am 11.3 7.2 -6.5 28 6.3 WNW 7 9 4 5 1020.6 1019.7 0.0
15/02:00am 11.6 7.6 -5.8 29 6.3 NW 7 9 4 5 1020.7 1019.8 0.0
15/01:30am 9.7 6.0 -4.6 36 5.2 WNW 6 7 3 4 1020.7 1019.8 0.0
15/01:00am 10.1 6.4 -5.0 34 5.5 WNW 6 7 3 4 1021.0 1020.1 0.0
15/12:30am 10.4 6.4 -5.2 33 5.7 WNW 7 9 4 5 1021.1 1020.2 0.0
15/12:00am 11.8 8.4 -5.6 29 6.3 WNW 4 6 2 3 1021.3 1020.4 0.0
 
Date/Time
EST
Temp
°C
App
Temp
°C
Dew
Point
°C
Rel
Hum
%
Delta-T
°C
Wind Press
QNH
hPa
Press
MSL
hPa
Rain since
9am
mm
Dir  Spd
km/h
Gust
km/h
Spd
kts
Gust
kts
14/11:30pm 12.2 9.6 -5.3 29 6.5 CALM 0 0 0 0 1021.2 1020.3 0.0
14/11:00pm 12.8 10.2 -4.8 29 6.6 CALM 0 0 0 0 1021.2 1020.3 0.0
14/10:30pm 14.7 11.2 -6.2 23 7.8 WNW 4 6 2 3 1021.1 1020.2 0.0
14/10:00pm 15.8 12.3 -6.5 21 8.3 WNW 4 6 2 3 1021.1 1020.2 0.0
14/09:30pm 16.1 12.6 -6.8 20 8.6 NW 4 6 2 3 1021.3 1020.4 0.0
14/09:00pm 16.5 13.0 -5.9 21 8.6 S 4 7 2 4 1021.2 1020.3 0.0
14/08:30pm 19.1 14.6 -7.3 16 10.1 E 9 13 5 7 1021.2 1020.3 0.0
14/08:00pm 18.5 15.7 -7.0 17 9.7 CALM 0 0 0 0 1020.8 1019.9 0.0
14/07:30pm 20.5 16.6 -7.0 15 10.8 WNW 6 7 3 4 1020.6 1019.7 0.0
14/07:00pm 23.6 20.5 -11.1 9 12.9 CALM 0 0 0 0 1020.2 1019.2 0.0
14/06:30pm 25.2 22.2 -9.9 9 13.6 CALM 0 0 0 0 1019.9 1019.0 0.0
14/06:00pm 26.9 23.8 -10.1 8 14.5 CALM 0 0 0 0 1019.7 1018.8 0.0
14/05:30pm 29.3 25.0 -11.9 6 16.1 WSW 6 9 3 5 1019.6 1018.7 0.0
14/05:00pm 30.0 25.7 -11.4 6 16.4 SW 6 11 3 6 1019.5 1018.6 0.0
14/04:30pm 30.5 26.0 -11.1 6 16.7 NW 7 13 4 7 1019.4 1018.5 0.0
14/04:00pm 30.6 26.6 -13.3 5 16.9 WSW 4 13 2 7 1019.3 1018.4 0.0
14/03:30pm 29.6 25.1 -14.0 5 16.5 WSW 6 15 3 8 1019.4 1018.5 0.0
14/03:00pm 30.5 25.3 -11.1 6 16.6 WSW 11 17 6 9 1019.5 1018.6 0.0
14/02:30pm 29.9 25.6 -11.5 6 16.4 SE 6 13 3 7 1019.7 1018.8 0.0
14/02:00pm 30.3 26.0 -11.2 6 16.5 NNW 6 9 3 5 1020.2 1019.2 0.0
14/01:30pm 29.6 25.3 -11.7 6 16.2 SSW 6 13 3 7 1020.6 1019.7 0.0
14/01:00pm 29.5 25.6 -11.8 6 16.1 SE 4 15 2 8 1021.1 1020.2 0.0
14/12:30pm 28.2 23.8 -10.8 7 15.4 SSW 7 13 4 7 1021.6 1020.7 0.0
14/12:00pm 28.3 23.9 -10.7 7 15.4 N 7 17 4 9 1022.2 1021.3 0.0
14/11:30am 27.6 22.4 -11.3 7 15.1 ESE 11 17 6 9 1022.6 1021.7 0.0
14/11:00am 27.3 23.1 -9.8 8 14.7 ESE 6 13 3 7 1023.1 1022.2 0.0
14/10:30am 26.8 22.5 -8.7 9 14.3 ESE 7 13 4 7 1023.5 1022.6 0.0
14/10:00am 25.6 21.5 -8.2 10 13.5 ESE 6 13 3 7 1023.6 1022.7 0.0
14/09:30am 25.1 21.1 -7.4 11 13.2 SE 6 9 3 5 1023.9 1023.1 0.0
14/09:00am 21.7 18.5 -6.9 14 11.3 SW 2 6 1 3 1024.2 1023.3 0.0
14/08:30am 19.4 15.6 -5.5 18 9.9 SW 6 7 3 4 1024.1 1023.2 0.0
14/08:00am 16.0 12.9 -3.0 27 7.7 SW 4 6 2 3 1023.8 1023.0 0.0
14/07:30am 12.8 9.7 -3.0 33 6.2 WNW 4 4 2 2 1023.5 1022.6 0.0
14/07:00am 9.4 7.0 -2.8 42 4.6 CALM 0 0 0 0 1023.2 1022.3 0.0
14/06:30am 7.5 4.6 -3.9 44 4.1 W 2 4 1 2 1022.8 1021.9 0.0
14/06:00am 6.9 3.1 -3.9 46 3.9 WNW 7 7 4 4 1022.5 1021.6 0.0
14/05:30am 6.8 3.0 -4.0 46 3.9 W 7 9 4 5 1022.2 1021.3 0.0
14/05:00am 8.7 5.7 -5.2 37 4.9 WNW 2 2 1 1 1022.0 1021.1 0.0
14/04:30am 9.7 6.6 -6.2 32 5.6 N 2 4 1 2 1021.7 1020.8 0.0
14/04:00am 11.8 8.8 -4.8 31 6.2 NW 2 4 1 2 1021.4 1020.5 0.0
14/03:30am 9.7 6.5 -3.9 38 5.0 W 4 6 2 3 1021.4 1020.5 0.0
14/03:00am 10.0 6.6 -5.1 34 5.4 W 4 4 2 2 1021.3 1020.4 0.0
14/02:30am 10.2 6.5 -4.2 36 5.3 W 6 6 3 3 1021.4 1020.5 0.0
14/02:00am 10.6 7.0 -3.8 36 5.4 WNW 6 7 3 4 1021.5 1020.6 0.0
14/01:30am 11.3 7.7 -4.0 34 5.8 WNW 6 7 3 4 1021.5 1020.6 0.0
14/01:00am 11.7 8.2 -3.2 35 5.7 WNW 6 9 3 5 1021.8 1020.9 0.0
14/12:30am 12.9 9.7 -3.8 31 6.4 WNW 4 6 2 3 1021.8 1020.9 0.0
14/12:00am 12.5 9.4 -2.5 35 5.9 NE 4 17 2 9 1022.1 1021.2 0.0
 
Date/Time
EST
Temp
°C
App
Temp
°C
Dew
Point
°C
Rel
Hum
%
Delta-T
°C
Wind Press
QNH
hPa
Press
MSL
hPa
Rain since
9am
mm
Dir  Spd
km/h
Gust
km/h
Spd
kts
Gust
kts
13/11:30pm 13.3 9.9 -2.2 34 6.2 WNW 6 6 3 3 1021.9 1021.0 0.0
13/11:00pm 13.7 10.2 -2.7 32 6.5 WNW 6 6 3 3 1022.0 1021.1 0.0
13/10:30pm 15.5 12.4 -2.9 28 7.4 NW 4 6 2 3 1021.9 1021.0 0.0
13/10:00pm 15.9 13.6 -2.1 29 7.4 CALM 0 2 0 1 1021.9 1021.0 0.0
13/09:30pm 15.7 12.3 -1.8 30 7.3 WSW 6 6 3 3 1021.8 1020.9 0.0
13/09:00pm 17.4 14.5 -3.9 23 8.6 NE 2 6 1 3 1021.5 1020.6 0.0
13/08:30pm 19.2 16.5 -2.4 23 9.2 SE 2 6 1 3 1021.4 1020.5 0.0
13/08:00pm 19.1 16.3 -3.7 21 9.4 SSW 2 7 1 4 1021.2 1020.3 0.0
13/07:30pm 21.3 18.9 -3.2 19 10.4 CALM 0 2 0 1 1020.8 1019.9 0.0
13/07:00pm 23.0 20.1 -4.1 16 11.5 NNE 2 6 1 3 1020.5 1019.5 0.0
13/06:30pm 25.3 21.4 -5.1 13 12.9 NNE 7 9 4 5 1020.2 1019.2 0.0
13/06:00pm 26.4 22.5 -6.4 11 13.7 NNE 6 9 3 5 1019.8 1018.9 0.0
13/05:30pm 29.5 26.3 -6.7 9 15.5 NW 2 6 1 3 1019.5 1018.6 0.0
13/05:00pm 28.9 24.8 -7.1 9 15.2 NE 7 13 4 7 1019.4 1018.5 0.0
13/04:30pm 30.2 27.1 -6.1 9 15.8 NE 2 6 1 3 1019.3 1018.4 0.0
13/04:00pm 30.1 26.0 -6.2 9 15.7 NW 7 15 4 8 1019.4 1018.5 0.0
13/03:30pm 29.5 25.7 -5.3 10 15.3 SW 6 13 3 7 1019.4 1018.5 0.0
13/03:00pm 29.7 25.8 -5.1 10 15.3 SE 7 17 4 9 1019.5 1018.6 0.0
13/02:30pm 29.0 24.6 -5.7 10 15.1 SSW 9 19 5 10 1019.9 1019.0 0.0
13/02:00pm 28.4 24.1 -4.9 11 14.6 S 9 19 5 10 1020.5 1019.5 0.0
13/01:30pm 29.1 25.2 -4.3 11 14.9 SSE 7 15 4 8 1021.0 1020.1 0.0
13/01:00pm 27.7 23.9 -5.4 11 14.2 SSW 6 13 3 7 1021.4 1020.5 0.0
13/12:30pm 27.7 23.6 -3.2 13 13.9 SW 9 15 5 8 1022.1 1021.2 0.0
13/12:00pm 27.2 22.8 -2.6 14 13.4 SW 11 20 6 11 1022.5 1021.6 0.0
13/11:30am 25.9 22.4 -2.7 15 12.8 SSW 6 13 3 7 1023.3 1022.4 0.0
13/11:00am 25.5 22.3 0.9 20 11.7 WNW 7 11 4 6 1023.7 1022.9 0.0
13/10:30am 24.1 21.6 1.7 23 10.7 WSW 4 7 2 4 1024.5 1023.6 0.0
13/10:00am 22.9 20.5 1.9 25 9.9 W 4 7 2 4 1024.8 1023.9 0.0
13/09:30am 20.7 18.5 1.1 27 9.0 SSW 2 4 1 2 1024.9 1024.0 0.0
13/09:00am 20.2 18.6 2.5 31 8.3 CALM 0 4 0 2 1024.9 1024.0 0.0
13/08:30am 17.0 15.1 3.0 39 6.5 WSW 2 4 1 2 1025.0 1024.1 0.0
13/08:00am 14.4 12.1 2.9 46 5.2 W 4 6 2 3 1024.7 1023.8 0.0
13/07:30am 12.1 10.1 2.3 51 4.3 WNW 2 4 1 2 1024.6 1023.7 0.0
13/07:00am 9.1 6.6 1.8 60 3.1 NW 4 6 2 3 1024.2 1023.3 0.0
13/06:30am 6.4 3.3 0.3 65 2.4 WNW 6 7 3 4 1023.7 1022.9 0.0
13/06:00am 7.3 5.1 1.0 64 2.5 WNW 2 2 1 1 1023.6 1022.7 0.0
13/05:30am 7.9 5.2 0.6 60 3.0 WNW 4 6 2 3 1023.3 1022.4 0.0
13/05:00am 8.2 5.9 0.2 57 3.2 NW 2 6 1 3 1023.1 1022.2 0.0
13/04:30am 9.4 6.8 1.1 56 3.5 NNE 4 6 2 3 1022.8 1021.9 0.0
13/04:00am 9.1 7.0 1.5 59 3.2 W 2 4 1 2 1022.6 1021.7 0.0
13/03:30am 9.0 6.4 0.7 56 3.4 W 4 6 2 3 1022.3 1021.4 0.0
13/03:00am 9.4 6.8 0.8 55 3.5 WNW 4 4 2 2 1022.3 1021.4 0.0
13/02:30am 9.9 7.7 1.0 54 3.7 SW 2 4 1 2 1022.5 1021.6 0.0
13/02:00am 9.8 7.2 1.2 55 3.6 ENE 4 7 2 4 1023.0 1022.1 0.0
13/01:30am 9.5 6.5 0.7 54 3.6 W 6 6 3 3 1023.3 1022.4 0.0
13/01:00am 10.0 7.4 0.9 53 3.8 W 4 4 2 2 1023.5 1022.6 0.0
13/12:30am 10.4 7.8 1.2 53 3.9 W 4 6 2 3 1023.7 1022.9 0.0
13/12:00am 11.4 9.3 1.4 50 4.3 W 2 6 1 3 1023.9 1023.1 0.0
 
Date/Time
EST
Temp
°C
App
Temp
°C
Dew
Point
°C
Rel
Hum
%
Delta-T
°C
Wind Press
QNH
hPa
Press
MSL
hPa
Rain since
9am
mm
Dir  Spd
km/h
Gust
km/h
Spd
kts
Gust
kts
12/11:30pm 11.7 9.8 0.8 47 4.6 CALM 0 0 0 0 1024.2 1023.3 0.0
12/11:00pm 12.6 10.1 1.3 46 4.8 WNW 4 6 2 3 1024.4 1023.5 0.0
12/10:30pm 13.1 11.1 0.2 41 5.5 CALM 0 2 0 1 1024.3 1023.4 0.0
12/10:00pm 14.6 12.4 0.8 39 6.0 ESE 2 4 1 2 1024.2 1023.3 0.0
12/09:30pm 15.6 13.4 1.0 37 6.4 ENE 2 4 1 2 1024.3 1023.4 0.0
12/09:00pm 16.1 13.8 0.3 34 6.8 NE 2 4 1 2 1024.2 1023.3 0.0
12/08:30pm 17.9 14.8 1.4 33 7.5 E 7 9 4 5 1024.2 1023.3 0.0
12/08:00pm 16.8 14.1 0.5 33 7.1 WNW 4 6 2 3 1023.8 1023.0 0.0
12/07:30pm 17.9 15.2 0.1 30 7.8 WNW 4 6 2 3 1023.6 1022.7 0.0
12/07:00pm 19.3 16.2 0.4 28 8.4 WNW 6 7 3 4 1023.3 1022.4 0.0
12/06:30pm 20.5 18.5 -0.2 25 9.3 CALM 0 0 0 0 1022.9 1022.0 0.0
12/06:00pm 22.8 20.7 -0.6 21 10.6 CALM 0 0 0 0 1022.8 1021.9 0.0
12/05:30pm 24.1 20.9 -0.2 20 11.2 SE 6 9 3 5 1022.7 1021.8 0.0
12/05:00pm 24.8 21.5 0.3 20 11.4 SSE 7 15 4 8 1022.6 1021.7 0.0

Other formats

Comma delimited format used in spreadsheet applications
http://www.bom.gov.au/fwo/IDQ60801/IDQ60801.94399.axf

JavaScript Object Notation format (JSON) in row-major order
http://www.bom.gov.au/fwo/IDQ60801/IDQ60801.94399.json

Data quality

Most of these data are generated automatically and are frequently updated. Quality checks on data are not normally performed. It is possible for incorrect values to appear. Refer to information at About Latest Weather Observations and please check the disclaimer before using these data.